Meath Environmental Platform

Observations for Trim Patrick St

Time AQI Temp °C Hum % Pres Pa CO μg/m³ H₂S μg/m³ NO μg/m³ NO₂ μg/m³ O₃ μg/m³ SO₂ μg/m³ PM1 μg/m³ PM2.5 μg/m³ PM10 μg/m³
Thursday 30 July 2026
17:35 3 25.1 36 68,918 0 18.05 1.28 29.9 81 9.71 2 7.28 8.01
17:34 3 25 36 68,906 0 18.03 1.33 18.48 88.15 9.96 2 7.32 8.05
17:33 3 25 36 68,896 0 16.22 1.31 23.77 84.24 10.06 2 7.29 8.02
17:32 3 25 36 68,882 0 15.21 1.32 11.88 90.28 9.95 2 8.9 9.79
17:31 3 25.1 36 68,894 0 19.88 1.29 25.09 91.49 10.72 2 8.09 8.9
17:30 3 25.1 36 68,908 0 16 1.31 19.43 89.49 10.45 2 7.32 8.05
17:29 3 25.1 35 68,898 0 18.9 1.34 13.13 99.67 10.91 2 8.13 8.94
17:28 3 25.1 35 68,914 0 18.56 1.33 13.84 98.05 10.82 2 8.14 8.96
17:27 3 25.2 35 68,904 0 17.06 1.31 15.71 102.95 10.75 2 7.35 8.08
17:26 3 25.2 35 68,920 0 14.17 1.34 12.81 88.48 11.05 2 7.38 8.12
17:25 3 25.2 35 68,945 0 14.7 1.31 11.89 101.17 11.11 2 7.35 8.09
17:24 3 25.3 35 68,916 0 15.44 1.31 15.45 103.5 10.85 2 7.38 8.12
17:23 3 25.4 34 68,935 0 14.9 1.31 10.63 96.36 11.37 2.86 8.21 9.03
17:22 3 25.5 34 68,967 0 16.6 1.31 11.67 113.64 11.52 2 7.42 8.16
17:21 3 25.7 34 68,973 0 14.68 1.31 14.63 95.1 11.77 2 8.23 9.06
17:20 3 25.8 34 68,983 0 11.93 1.47 12.33 99.6 11.47 2 7.43 8.17
17:19 3 25.9 34 68,969 0 14.14 1.39 14.47 102.21 11.5 2 7.44 8.19
17:18 3 26.1 33 68,971 0 9.89 1.44 11.33 84.07 11.65 2 8.27 9.09
17:17 3 26.2 33 68,977 0 13.46 1.5 24.45 91.27 11.32 2 8.28 9.11
17:16 3 26.3 33 68,983 0 11.05 1.47 12.08 106.07 12.17 2 8.27 9.09